sensor_id;sensor_type;location;lat;lon;timestamp;P1;durP1;ratioP1;P2;durP2;ratioP2
9324;SDS011;4701;51.566;6.776;2023-06-14T00:02:57;7.97;;;5.47;;
9324;SDS011;4701;51.566;6.776;2023-06-14T00:05:59;5.80;;;5.20;;
9324;SDS011;4701;51.566;6.776;2023-06-14T00:09:02;6.93;;;4.97;;
9324;SDS011;4701;51.566;6.776;2023-06-14T00:12:05;8.27;;;5.57;;
9324;SDS011;4701;51.566;6.776;2023-06-14T00:15:09;7.40;;;5.33;;
9324;SDS011;4701;51.566;6.776;2023-06-14T00:18:10;6.47;;;5.23;;
9324;SDS011;4701;51.566;6.776;2023-06-14T00:21:13;6.60;;;5.27;;
9324;SDS011;4701;51.566;6.776;2023-06-14T00:24:16;8.33;;;5.13;;
9324;SDS011;4701;51.566;6.776;2023-06-14T00:27:18;6.57;;;4.50;;
9324;SDS011;4701;51.566;6.776;2023-06-14T00:30:20;6.20;;;5.03;;
9324;SDS011;4701;51.566;6.776;2023-06-14T00:33:22;7.43;;;5.70;;
9324;SDS011;4701;51.566;6.776;2023-06-14T00:36:25;7.90;;;5.40;;
9324;SDS011;4701;51.566;6.776;2023-06-14T00:39:28;9.03;;;5.60;;
9324;SDS011;4701;51.566;6.776;2023-06-14T00:42:30;8.87;;;5.10;;
9324;SDS011;4701;51.566;6.776;2023-06-14T00:45:32;5.80;;;4.73;;
9324;SDS011;4701;51.566;6.776;2023-06-14T00:48:36;5.83;;;4.50;;
9324;SDS011;4701;51.566;6.776;2023-06-14T00:51:40;6.37;;;4.53;;
9324;SDS011;4701;51.566;6.776;2023-06-14T00:54:44;6.33;;;5.17;;
9324;SDS011;4701;51.566;6.776;2023-06-14T00:57:46;10.87;;;5.00;;
9324;SDS011;4701;51.566;6.776;2023-06-14T01:00:48;5.20;;;4.33;;
9324;SDS011;4701;51.566;6.776;2023-06-14T01:03:51;5.10;;;4.37;;
9324;SDS011;4701;51.566;6.776;2023-06-14T01:06:55;4.83;;;4.43;;
9324;SDS011;4701;51.566;6.776;2023-06-14T01:10:15;6.80;;;4.67;;
9324;SDS011;4701;51.566;6.776;2023-06-14T01:13:27;5.00;;;4.50;;
9324;SDS011;4701;51.566;6.776;2023-06-14T01:16:34;5.17;;;4.43;;
9324;SDS011;4701;51.566;6.776;2023-06-14T01:19:39;5.93;;;4.00;;
9324;SDS011;4701;51.566;6.776;2023-06-14T01:22:48;6.30;;;4.73;;
9324;SDS011;4701;51.566;6.776;2023-06-14T01:25:52;6.50;;;4.60;;
9324;SDS011;4701;51.566;6.776;2023-06-14T01:28:53;6.23;;;4.50;;
9324;SDS011;4701;51.566;6.776;2023-06-14T01:31:58;6.67;;;4.20;;
9324;SDS011;4701;51.566;6.776;2023-06-14T01:35:05;4.60;;;4.20;;
9324;SDS011;4701;51.566;6.776;2023-06-14T01:38:09;8.50;;;4.33;;
9324;SDS011;4701;51.566;6.776;2023-06-14T01:41:10;5.90;;;4.20;;
9324;SDS011;4701;51.566;6.776;2023-06-14T01:44:14;4.87;;;3.90;;
9324;SDS011;4701;51.566;6.776;2023-06-14T01:47:16;6.17;;;4.00;;
9324;SDS011;4701;51.566;6.776;2023-06-14T01:50:18;6.07;;;4.20;;
9324;SDS011;4701;51.566;6.776;2023-06-14T01:53:22;6.83;;;3.90;;
9324;SDS011;4701;51.566;6.776;2023-06-14T01:56:24;5.43;;;3.90;;
9324;SDS011;4701;51.566;6.776;2023-06-14T01:59:26;5.03;;;3.90;;
9324;SDS011;4701;51.566;6.776;2023-06-14T02:02:28;8.47;;;3.83;;
9324;SDS011;4701;51.566;6.776;2023-06-14T02:05:30;4.20;;;3.53;;
9324;SDS011;4701;51.566;6.776;2023-06-14T02:08:33;6.77;;;4.00;;
9324;SDS011;4701;51.566;6.776;2023-06-14T02:11:35;4.43;;;4.00;;
9324;SDS011;4701;51.566;6.776;2023-06-14T02:14:37;6.73;;;3.90;;
9324;SDS011;4701;51.566;6.776;2023-06-14T02:17:39;4.33;;;3.53;;
9324;SDS011;4701;51.566;6.776;2023-06-14T02:20:41;5.10;;;3.70;;
9324;SDS011;4701;51.566;6.776;2023-06-14T02:23:44;4.40;;;3.70;;
9324;SDS011;4701;51.566;6.776;2023-06-14T02:26:46;8.73;;;5.20;;
9324;SDS011;4701;51.566;6.776;2023-06-14T02:29:49;7.40;;;5.47;;
9324;SDS011;4701;51.566;6.776;2023-06-14T02:32:50;6.97;;;5.87;;
9324;SDS011;4701;51.566;6.776;2023-06-14T02:35:53;9.47;;;8.23;;
9324;SDS011;4701;51.566;6.776;2023-06-14T02:38:57;7.20;;;5.47;;
9324;SDS011;4701;51.566;6.776;2023-06-14T02:42:00;5.23;;;4.40;;
9324;SDS011;4701;51.566;6.776;2023-06-14T02:45:02;5.10;;;4.00;;
9324;SDS011;4701;51.566;6.776;2023-06-14T02:48:04;8.27;;;7.43;;
9324;SDS011;4701;51.566;6.776;2023-06-14T02:51:07;4.57;;;3.67;;
9324;SDS011;4701;51.566;6.776;2023-06-14T02:54:11;7.07;;;3.13;;
9324;SDS011;4701;51.566;6.776;2023-06-14T02:57:13;3.83;;;3.43;;
9324;SDS011;4701;51.566;6.776;2023-06-14T03:00:16;4.87;;;3.40;;
9324;SDS011;4701;51.566;6.776;2023-06-14T03:03:21;5.70;;;3.50;;
9324;SDS011;4701;51.566;6.776;2023-06-14T03:06:28;4.93;;;3.50;;
9324;SDS011;4701;51.566;6.776;2023-06-14T03:09:33;4.90;;;3.10;;
9324;SDS011;4701;51.566;6.776;2023-06-14T03:12:35;4.83;;;3.30;;
9324;SDS011;4701;51.566;6.776;2023-06-14T03:15:39;6.10;;;3.23;;
9324;SDS011;4701;51.566;6.776;2023-06-14T03:18:42;6.83;;;3.40;;
9324;SDS011;4701;51.566;6.776;2023-06-14T03:21:44;6.80;;;3.50;;
9324;SDS011;4701;51.566;6.776;2023-06-14T03:24:47;5.77;;;3.60;;
9324;SDS011;4701;51.566;6.776;2023-06-14T03:27:50;7.00;;;3.30;;
9324;SDS011;4701;51.566;6.776;2023-06-14T03:30:53;7.33;;;3.50;;
9324;SDS011;4701;51.566;6.776;2023-06-14T03:33:56;5.10;;;3.30;;
9324;SDS011;4701;51.566;6.776;2023-06-14T03:36:58;5.60;;;3.40;;
9324;SDS011;4701;51.566;6.776;2023-06-14T03:40:03;6.50;;;3.60;;
9324;SDS011;4701;51.566;6.776;2023-06-14T03:43:12;5.33;;;3.57;;
9324;SDS011;4701;51.566;6.776;2023-06-14T03:46:14;6.23;;;3.30;;
9324;SDS011;4701;51.566;6.776;2023-06-14T03:49:16;5.47;;;3.50;;
9324;SDS011;4701;51.566;6.776;2023-06-14T03:52:19;7.07;;;3.40;;
9324;SDS011;4701;51.566;6.776;2023-06-14T03:55:23;8.37;;;3.40;;
9324;SDS011;4701;51.566;6.776;2023-06-14T03:58:28;8.63;;;3.33;;
9324;SDS011;4701;51.566;6.776;2023-06-14T04:01:30;3.60;;;3.10;;
9324;SDS011;4701;51.566;6.776;2023-06-14T04:04:34;7.10;;;3.10;;
9324;SDS011;4701;51.566;6.776;2023-06-14T04:07:36;5.90;;;3.33;;
9324;SDS011;4701;51.566;6.776;2023-06-14T04:10:41;6.23;;;3.00;;
9324;SDS011;4701;51.566;6.776;2023-06-14T04:13:43;9.53;;;3.70;;
9324;SDS011;4701;51.566;6.776;2023-06-14T04:16:45;5.67;;;2.97;;
9324;SDS011;4701;51.566;6.776;2023-06-14T04:19:50;5.67;;;3.50;;
9324;SDS011;4701;51.566;6.776;2023-06-14T04:22:52;5.87;;;3.13;;
9324;SDS011;4701;51.566;6.776;2023-06-14T04:25:55;5.53;;;3.13;;
9324;SDS011;4701;51.566;6.776;2023-06-14T04:29:02;3.87;;;3.30;;
9324;SDS011;4701;51.566;6.776;2023-06-14T04:32:08;7.17;;;3.57;;
9324;SDS011;4701;51.566;6.776;2023-06-14T04:35:12;3.70;;;3.30;;
9324;SDS011;4701;51.566;6.776;2023-06-14T04:38:17;5.33;;;3.20;;
9324;SDS011;4701;51.566;6.776;2023-06-14T04:41:20;7.27;;;3.20;;
9324;SDS011;4701;51.566;6.776;2023-06-14T04:44:23;6.07;;;3.30;;
9324;SDS011;4701;51.566;6.776;2023-06-14T04:47:30;4.00;;;3.20;;
9324;SDS011;4701;51.566;6.776;2023-06-14T04:50:32;7.70;;;3.10;;
9324;SDS011;4701;51.566;6.776;2023-06-14T04:53:35;5.30;;;3.07;;
9324;SDS011;4701;51.566;6.776;2023-06-14T04:56:39;6.43;;;3.20;;
9324;SDS011;4701;51.566;6.776;2023-06-14T04:59:41;6.07;;;3.03;;
9324;SDS011;4701;51.566;6.776;2023-06-14T05:02:44;7.83;;;3.13;;
9324;SDS011;4701;51.566;6.776;2023-06-14T05:05:47;8.50;;;3.03;;
9324;SDS011;4701;51.566;6.776;2023-06-14T05:08:51;4.40;;;3.10;;
9324;SDS011;4701;51.566;6.776;2023-06-14T05:11:54;6.57;;;3.13;;
9324;SDS011;4701;51.566;6.776;2023-06-14T05:14:57;8.70;;;3.20;;
9324;SDS011;4701;51.566;6.776;2023-06-14T05:17:59;6.00;;;3.27;;
9324;SDS011;4701;51.566;6.776;2023-06-14T05:21:01;8.80;;;3.33;;
9324;SDS011;4701;51.566;6.776;2023-06-14T05:24:04;9.43;;;3.17;;
9324;SDS011;4701;51.566;6.776;2023-06-14T05:27:08;8.43;;;3.40;;
9324;SDS011;4701;51.566;6.776;2023-06-14T05:30:10;5.57;;;3.30;;
9324;SDS011;4701;51.566;6.776;2023-06-14T05:33:13;6.87;;;3.10;;
9324;SDS011;4701;51.566;6.776;2023-06-14T05:36:14;10.53;;;3.37;;
9324;SDS011;4701;51.566;6.776;2023-06-14T05:39:16;13.00;;;3.87;;
9324;SDS011;4701;51.566;6.776;2023-06-14T05:42:19;7.33;;;3.27;;
9324;SDS011;4701;51.566;6.776;2023-06-14T05:45:21;9.30;;;3.30;;
9324;SDS011;4701;51.566;6.776;2023-06-14T05:48:23;7.60;;;3.03;;
9324;SDS011;4701;51.566;6.776;2023-06-14T05:51:25;4.47;;;3.27;;
9324;SDS011;4701;51.566;6.776;2023-06-14T05:54:27;6.83;;;2.97;;
9324;SDS011;4701;51.566;6.776;2023-06-14T05:57:30;10.93;;;3.37;;
9324;SDS011;4701;51.566;6.776;2023-06-14T06:00:32;13.60;;;3.00;;
9324;SDS011;4701;51.566;6.776;2023-06-14T06:03:34;6.03;;;3.20;;
9324;SDS011;4701;51.566;6.776;2023-06-14T06:06:36;7.20;;;3.10;;
9324;SDS011;4701;51.566;6.776;2023-06-14T06:09:37;7.47;;;3.13;;
9324;SDS011;4701;51.566;6.776;2023-06-14T06:12:42;7.70;;;3.03;;
9324;SDS011;4701;51.566;6.776;2023-06-14T06:15:44;6.50;;;2.87;;
9324;SDS011;4701;51.566;6.776;2023-06-14T06:18:46;8.20;;;2.80;;
9324;SDS011;4701;51.566;6.776;2023-06-14T06:21:48;8.13;;;3.23;;
9324;SDS011;4701;51.566;6.776;2023-06-14T06:24:49;6.20;;;3.33;;
9324;SDS011;4701;51.566;6.776;2023-06-14T06:27:53;6.30;;;2.87;;
9324;SDS011;4701;51.566;6.776;2023-06-14T06:30:56;5.17;;;2.50;;
9324;SDS011;4701;51.566;6.776;2023-06-14T06:33:58;6.23;;;2.90;;
9324;SDS011;4701;51.566;6.776;2023-06-14T06:37:00;6.73;;;3.00;;
9324;SDS011;4701;51.566;6.776;2023-06-14T06:40:02;4.07;;;2.70;;
9324;SDS011;4701;51.566;6.776;2023-06-14T06:43:07;5.00;;;2.37;;
9324;SDS011;4701;51.566;6.776;2023-06-14T06:46:15;7.07;;;2.37;;
9324;SDS011;4701;51.566;6.776;2023-06-14T06:49:19;6.20;;;1.90;;
9324;SDS011;4701;51.566;6.776;2023-06-14T06:52:21;3.17;;;2.07;;
9324;SDS011;4701;51.566;6.776;2023-06-14T06:55:23;5.57;;;2.50;;
9324;SDS011;4701;51.566;6.776;2023-06-14T06:58:26;2.37;;;2.17;;
9324;SDS011;4701;51.566;6.776;2023-06-14T07:01:28;3.83;;;2.10;;
9324;SDS011;4701;51.566;6.776;2023-06-14T07:04:30;3.70;;;2.10;;
9324;SDS011;4701;51.566;6.776;2023-06-14T07:07:32;9.03;;;2.30;;
9324;SDS011;4701;51.566;6.776;2023-06-14T07:10:34;5.13;;;2.33;;
9324;SDS011;4701;51.566;6.776;2023-06-14T07:13:39;2.70;;;1.97;;
9324;SDS011;4701;51.566;6.776;2023-06-14T07:16:41;4.57;;;2.03;;
9324;SDS011;4701;51.566;6.776;2023-06-14T07:19:43;5.33;;;2.63;;
9324;SDS011;4701;51.566;6.776;2023-06-14T07:22:47;3.90;;;2.30;;
9324;SDS011;4701;51.566;6.776;2023-06-14T07:25:49;4.90;;;2.27;;
9324;SDS011;4701;51.566;6.776;2023-06-14T07:28:52;7.00;;;2.13;;
9324;SDS011;4701;51.566;6.776;2023-06-14T07:31:54;3.33;;;2.10;;
9324;SDS011;4701;51.566;6.776;2023-06-14T07:34:55;6.30;;;2.30;;
9324;SDS011;4701;51.566;6.776;2023-06-14T07:37:57;4.23;;;2.10;;
9324;SDS011;4701;51.566;6.776;2023-06-14T07:40:59;5.00;;;1.97;;
9324;SDS011;4701;51.566;6.776;2023-06-14T07:44:03;6.27;;;2.40;;
9324;SDS011;4701;51.566;6.776;2023-06-14T07:47:05;4.33;;;2.00;;
9324;SDS011;4701;51.566;6.776;2023-06-14T07:50:07;6.67;;;2.30;;
9324;SDS011;4701;51.566;6.776;2023-06-14T07:53:11;4.33;;;2.30;;
9324;SDS011;4701;51.566;6.776;2023-06-14T07:56:13;4.33;;;1.90;;
9324;SDS011;4701;51.566;6.776;2023-06-14T07:59:17;2.97;;;2.23;;
9324;SDS011;4701;51.566;6.776;2023-06-14T08:02:18;3.47;;;2.07;;
9324;SDS011;4701;51.566;6.776;2023-06-14T08:05:20;4.77;;;2.40;;
9324;SDS011;4701;51.566;6.776;2023-06-14T08:08:23;8.13;;;2.50;;
9324;SDS011;4701;51.566;6.776;2023-06-14T08:11:25;10.93;;;2.80;;
9324;SDS011;4701;51.566;6.776;2023-06-14T08:14:28;7.30;;;2.53;;
9324;SDS011;4701;51.566;6.776;2023-06-14T08:17:30;8.07;;;2.33;;
9324;SDS011;4701;51.566;6.776;2023-06-14T08:20:31;4.80;;;2.10;;
9324;SDS011;4701;51.566;6.776;2023-06-14T08:23:35;7.13;;;2.83;;
9324;SDS011;4701;51.566;6.776;2023-06-14T08:26:37;4.50;;;2.50;;
9324;SDS011;4701;51.566;6.776;2023-06-14T08:29:40;4.40;;;2.00;;
9324;SDS011;4701;51.566;6.776;2023-06-14T08:32:43;1.80;;;1.70;;
9324;SDS011;4701;51.566;6.776;2023-06-14T08:35:45;5.83;;;2.10;;
9324;SDS011;4701;51.566;6.776;2023-06-14T08:38:47;4.53;;;1.87;;
9324;SDS011;4701;51.566;6.776;2023-06-14T08:41:49;3.97;;;2.33;;
9324;SDS011;4701;51.566;6.776;2023-06-14T08:44:55;5.72;;;2.08;;
9324;SDS011;4701;51.566;6.776;2023-06-14T08:47:56;3.83;;;2.10;;
9324;SDS011;4701;51.566;6.776;2023-06-14T08:51:00;3.43;;;2.27;;
9324;SDS011;4701;51.566;6.776;2023-06-14T08:54:03;8.43;;;2.33;;
9324;SDS011;4701;51.566;6.776;2023-06-14T08:57:06;14.90;;;3.00;;
9324;SDS011;4701;51.566;6.776;2023-06-14T09:00:14;6.33;;;2.27;;
9324;SDS011;4701;51.566;6.776;2023-06-14T09:03:16;4.43;;;2.20;;
9324;SDS011;4701;51.566;6.776;2023-06-14T09:06:21;8.33;;;2.30;;
9324;SDS011;4701;51.566;6.776;2023-06-14T09:09:24;8.13;;;2.37;;
9324;SDS011;4701;51.566;6.776;2023-06-14T09:12:27;10.57;;;1.92;;
9324;SDS011;4701;51.566;6.776;2023-06-14T09:15:31;4.73;;;1.97;;
9324;SDS011;4701;51.566;6.776;2023-06-14T09:18:34;3.38;;;2.35;;
9324;SDS011;4701;51.566;6.776;2023-06-14T09:21:36;2.57;;;1.80;;
9324;SDS011;4701;51.566;6.776;2023-06-14T09:24:38;7.43;;;2.20;;
9324;SDS011;4701;51.566;6.776;2023-06-14T09:27:40;4.47;;;1.58;;
9324;SDS011;4701;51.566;6.776;2023-06-14T09:30:43;2.92;;;1.88;;
9324;SDS011;4701;51.566;6.776;2023-06-14T09:33:46;3.88;;;1.80;;
9324;SDS011;4701;51.566;6.776;2023-06-14T09:36:48;5.28;;;1.90;;
9324;SDS011;4701;51.566;6.776;2023-06-14T09:39:51;3.37;;;1.97;;
9324;SDS011;4701;51.566;6.776;2023-06-14T09:42:53;5.38;;;1.88;;
9324;SDS011;4701;51.566;6.776;2023-06-14T09:45:59;5.32;;;1.80;;
9324;SDS011;4701;51.566;6.776;2023-06-14T09:49:02;2.70;;;1.70;;
9324;SDS011;4701;51.566;6.776;2023-06-14T09:52:06;8.57;;;1.75;;
9324;SDS011;4701;51.566;6.776;2023-06-14T09:55:12;3.28;;;1.60;;
9324;SDS011;4701;51.566;6.776;2023-06-14T09:58:15;3.28;;;1.30;;
9324;SDS011;4701;51.566;6.776;2023-06-14T10:01:21;4.60;;;1.60;;
9324;SDS011;4701;51.566;6.776;2023-06-14T10:04:25;4.30;;;1.60;;
9324;SDS011;4701;51.566;6.776;2023-06-14T10:07:32;3.70;;;1.58;;
9324;SDS011;4701;51.566;6.776;2023-06-14T10:10:38;3.50;;;1.65;;
9324;SDS011;4701;51.566;6.776;2023-06-14T10:13:41;5.25;;;1.30;;
9324;SDS011;4701;51.566;6.776;2023-06-14T10:16:45;4.60;;;1.42;;
9324;SDS011;4701;51.566;6.776;2023-06-14T10:19:58;9.40;;;1.83;;
9324;SDS011;4701;51.566;6.776;2023-06-14T10:23:18;3.80;;;1.10;;
9324;SDS011;4701;51.566;6.776;2023-06-14T10:26:23;4.22;;;1.17;;
9324;SDS011;4701;51.566;6.776;2023-06-14T10:29:25;2.30;;;1.00;;
9324;SDS011;4701;51.566;6.776;2023-06-14T10:32:33;3.45;;;1.25;;
9324;SDS011;4701;51.566;6.776;2023-06-14T10:35:35;2.78;;;1.05;;
9324;SDS011;4701;51.566;6.776;2023-06-14T10:38:37;4.13;;;0.88;;
9324;SDS011;4701;51.566;6.776;2023-06-14T10:41:40;3.28;;;1.05;;
9324;SDS011;4701;51.566;6.776;2023-06-14T10:44:42;6.82;;;1.40;;
9324;SDS011;4701;51.566;6.776;2023-06-14T10:47:47;4.28;;;1.10;;
9324;SDS011;4701;51.566;6.776;2023-06-14T10:50:59;8.10;;;1.40;;
9324;SDS011;4701;51.566;6.776;2023-06-14T10:54:02;1.92;;;0.93;;
9324;SDS011;4701;51.566;6.776;2023-06-14T10:57:06;3.08;;;0.90;;
9324;SDS011;4701;51.566;6.776;2023-06-14T11:00:09;2.80;;;0.90;;
9324;SDS011;4701;51.566;6.776;2023-06-14T11:03:31;1.83;;;1.20;;
9324;SDS011;4701;51.566;6.776;2023-06-14T11:06:46;6.13;;;1.20;;
9324;SDS011;4701;51.566;6.776;2023-06-14T11:09:51;6.72;;;1.42;;
9324;SDS011;4701;51.566;6.776;2023-06-14T11:13:06;8.10;;;1.13;;
9324;SDS011;4701;51.566;6.776;2023-06-14T11:16:12;1.10;;;1.00;;
9324;SDS011;4701;51.566;6.776;2023-06-14T11:19:17;3.10;;;0.98;;
9324;SDS011;4701;51.566;6.776;2023-06-14T11:22:18;4.10;;;1.10;;
9324;SDS011;4701;51.566;6.776;2023-06-14T11:25:21;5.35;;;1.25;;
9324;SDS011;4701;51.566;6.776;2023-06-14T11:28:23;3.97;;;1.17;;
9324;SDS011;4701;51.566;6.776;2023-06-14T11:31:25;5.40;;;1.15;;
9324;SDS011;4701;51.566;6.776;2023-06-14T11:34:29;7.90;;;2.03;;
9324;SDS011;4701;51.566;6.776;2023-06-14T11:37:31;2.05;;;1.10;;
9324;SDS011;4701;51.566;6.776;2023-06-14T11:40:34;2.50;;;1.30;;
9324;SDS011;4701;51.566;6.776;2023-06-14T11:43:39;5.32;;;1.17;;
9324;SDS011;4701;51.566;6.776;2023-06-14T11:46:41;2.25;;;1.35;;
9324;SDS011;4701;51.566;6.776;2023-06-14T11:49:44;2.60;;;1.48;;
9324;SDS011;4701;51.566;6.776;2023-06-14T11:52:51;8.00;;;1.40;;
9324;SDS011;4701;51.566;6.776;2023-06-14T11:55:54;5.40;;;1.63;;
9324;SDS011;4701;51.566;6.776;2023-06-14T11:58:56;3.15;;;1.40;;
9324;SDS011;4701;51.566;6.776;2023-06-14T12:01:57;1.70;;;1.20;;
9324;SDS011;4701;51.566;6.776;2023-06-14T12:05:05;3.70;;;1.60;;
9324;SDS011;4701;51.566;6.776;2023-06-14T12:08:10;3.60;;;1.60;;
9324;SDS011;4701;51.566;6.776;2023-06-14T12:11:17;4.80;;;1.52;;
9324;SDS011;4701;51.566;6.776;2023-06-14T12:14:19;3.22;;;1.30;;
9324;SDS011;4701;51.566;6.776;2023-06-14T12:17:21;12.05;;;1.73;;
9324;SDS011;4701;51.566;6.776;2023-06-14T12:20:28;3.45;;;1.30;;
9324;SDS011;4701;51.566;6.776;2023-06-14T12:23:43;3.15;;;1.20;;
9324;SDS011;4701;51.566;6.776;2023-06-14T12:26:46;5.43;;;1.73;;
9324;SDS011;4701;51.566;6.776;2023-06-14T12:29:58;3.30;;;1.50;;
9324;SDS011;4701;51.566;6.776;2023-06-14T12:33:01;1.85;;;1.40;;
9324;SDS011;4701;51.566;6.776;2023-06-14T12:36:05;3.53;;;1.52;;
9324;SDS011;4701;51.566;6.776;2023-06-14T12:39:08;4.75;;;1.65;;
9324;SDS011;4701;51.566;6.776;2023-06-14T12:42:10;3.35;;;1.70;;
9324;SDS011;4701;51.566;6.776;2023-06-14T12:45:13;4.70;;;1.50;;
9324;SDS011;4701;51.566;6.776;2023-06-14T12:48:15;2.65;;;1.42;;
9324;SDS011;4701;51.566;6.776;2023-06-14T12:51:19;3.38;;;1.52;;
9324;SDS011;4701;51.566;6.776;2023-06-14T12:54:21;2.83;;;1.77;;
9324;SDS011;4701;51.566;6.776;2023-06-14T12:57:25;1.95;;;1.70;;
9324;SDS011;4701;51.566;6.776;2023-06-14T13:00:27;5.97;;;1.88;;
9324;SDS011;4701;51.566;6.776;2023-06-14T13:03:30;2.97;;;1.70;;
9324;SDS011;4701;51.566;6.776;2023-06-14T13:06:35;3.00;;;1.65;;
9324;SDS011;4701;51.566;6.776;2023-06-14T13:09:37;4.38;;;1.63;;
9324;SDS011;4701;51.566;6.776;2023-06-14T13:12:39;2.80;;;1.88;;
9324;SDS011;4701;51.566;6.776;2023-06-14T13:15:43;6.22;;;1.63;;
9324;SDS011;4701;51.566;6.776;2023-06-14T13:18:46;3.78;;;2.20;;
9324;SDS011;4701;51.566;6.776;2023-06-14T13:21:52;2.35;;;1.83;;
9324;SDS011;4701;51.566;6.776;2023-06-14T13:24:54;2.65;;;1.60;;
9324;SDS011;4701;51.566;6.776;2023-06-14T13:27:56;2.60;;;2.40;;
9324;SDS011;4701;51.566;6.776;2023-06-14T13:30:57;11.35;;;2.55;;
9324;SDS011;4701;51.566;6.776;2023-06-14T13:33:59;6.40;;;1.98;;
9324;SDS011;4701;51.566;6.776;2023-06-14T13:37:03;6.72;;;2.13;;
9324;SDS011;4701;51.566;6.776;2023-06-14T13:40:05;3.85;;;2.25;;
9324;SDS011;4701;51.566;6.776;2023-06-14T13:43:08;3.38;;;2.05;;
9324;SDS011;4701;51.566;6.776;2023-06-14T13:46:10;9.45;;;2.42;;
9324;SDS011;4701;51.566;6.776;2023-06-14T13:49:12;18.25;;;3.03;;
9324;SDS011;4701;51.566;6.776;2023-06-14T13:52:15;43.33;;;5.38;;
9324;SDS011;4701;51.566;6.776;2023-06-14T13:55:17;26.65;;;3.60;;
9324;SDS011;4701;51.566;6.776;2023-06-14T13:58:19;17.35;;;2.75;;
9324;SDS011;4701;51.566;6.776;2023-06-14T14:01:21;10.45;;;2.42;;
9324;SDS011;4701;51.566;6.776;2023-06-14T14:04:24;8.52;;;3.40;;
9324;SDS011;4701;51.566;6.776;2023-06-14T14:07:28;6.30;;;2.33;;
9324;SDS011;4701;51.566;6.776;2023-06-14T14:10:30;9.45;;;2.30;;
9324;SDS011;4701;51.566;6.776;2023-06-14T14:13:32;6.03;;;2.03;;
9324;SDS011;4701;51.566;6.776;2023-06-14T14:16:34;8.20;;;2.17;;
9324;SDS011;4701;51.566;6.776;2023-06-14T14:19:36;9.75;;;2.80;;
9324;SDS011;4701;51.566;6.776;2023-06-14T14:22:39;8.48;;;2.40;;
9324;SDS011;4701;51.566;6.776;2023-06-14T14:25:41;6.32;;;2.45;;
9324;SDS011;4701;51.566;6.776;2023-06-14T14:28:43;4.95;;;2.08;;
9324;SDS011;4701;51.566;6.776;2023-06-14T14:31:45;8.80;;;2.20;;
9324;SDS011;4701;51.566;6.776;2023-06-14T14:34:47;5.18;;;2.22;;
9324;SDS011;4701;51.566;6.776;2023-06-14T14:37:51;4.55;;;2.10;;
9324;SDS011;4701;51.566;6.776;2023-06-14T14:40:53;5.50;;;2.30;;
9324;SDS011;4701;51.566;6.776;2023-06-14T14:43:55;3.53;;;2.05;;
9324;SDS011;4701;51.566;6.776;2023-06-14T14:46:57;6.00;;;3.97;;
9324;SDS011;4701;51.566;6.776;2023-06-14T14:49:59;5.60;;;3.08;;
9324;SDS011;4701;51.566;6.776;2023-06-14T14:53:02;12.77;;;5.32;;
9324;SDS011;4701;51.566;6.776;2023-06-14T14:56:04;9.85;;;4.32;;
9324;SDS011;4701;51.566;6.776;2023-06-14T14:59:06;4.63;;;3.05;;
9324;SDS011;4701;51.566;6.776;2023-06-14T15:02:08;9.07;;;2.72;;
9324;SDS011;4701;51.566;6.776;2023-06-14T15:05:10;5.82;;;2.40;;
9324;SDS011;4701;51.566;6.776;2023-06-14T15:08:13;3.70;;;2.30;;
9324;SDS011;4701;51.566;6.776;2023-06-14T15:11:15;6.47;;;2.35;;
9324;SDS011;4701;51.566;6.776;2023-06-14T15:14:17;6.07;;;2.55;;
9324;SDS011;4701;51.566;6.776;2023-06-14T15:17:19;5.60;;;2.33;;
9324;SDS011;4701;51.566;6.776;2023-06-14T15:20:22;9.52;;;2.35;;
9324;SDS011;4701;51.566;6.776;2023-06-14T15:23:25;4.35;;;2.50;;
9324;SDS011;4701;51.566;6.776;2023-06-14T15:26:27;4.05;;;2.10;;
9324;SDS011;4701;51.566;6.776;2023-06-14T15:29:29;4.53;;;2.00;;
9324;SDS011;4701;51.566;6.776;2023-06-14T15:32:31;5.72;;;2.20;;
9324;SDS011;4701;51.566;6.776;2023-06-14T15:35:35;4.80;;;2.13;;
9324;SDS011;4701;51.566;6.776;2023-06-14T15:38:39;2.33;;;2.13;;
9324;SDS011;4701;51.566;6.776;2023-06-14T15:41:41;2.40;;;2.20;;
9324;SDS011;4701;51.566;6.776;2023-06-14T15:44:42;7.28;;;4.82;;
9324;SDS011;4701;51.566;6.776;2023-06-14T15:47:44;6.38;;;4.68;;
9324;SDS011;4701;51.566;6.776;2023-06-14T15:50:46;3.15;;;2.22;;
9324;SDS011;4701;51.566;6.776;2023-06-14T15:53:49;4.53;;;2.38;;
9324;SDS011;4701;51.566;6.776;2023-06-14T15:56:52;6.55;;;2.70;;
9324;SDS011;4701;51.566;6.776;2023-06-14T15:59:54;5.80;;;2.45;;
9324;SDS011;4701;51.566;6.776;2023-06-14T16:02:56;6.00;;;2.38;;
9324;SDS011;4701;51.566;6.776;2023-06-14T16:05:59;10.07;;;3.35;;
9324;SDS011;4701;51.566;6.776;2023-06-14T16:09:02;5.93;;;2.50;;
9324;SDS011;4701;51.566;6.776;2023-06-14T16:12:04;3.40;;;2.33;;
9324;SDS011;4701;51.566;6.776;2023-06-14T16:15:07;4.18;;;2.47;;
9324;SDS011;4701;51.566;6.776;2023-06-14T16:18:10;8.73;;;2.60;;
9324;SDS011;4701;51.566;6.776;2023-06-14T16:21:12;4.40;;;2.88;;
9324;SDS011;4701;51.566;6.776;2023-06-14T16:24:15;5.50;;;4.55;;
9324;SDS011;4701;51.566;6.776;2023-06-14T16:27:17;6.00;;;2.70;;
9324;SDS011;4701;51.566;6.776;2023-06-14T16:30:19;4.35;;;2.60;;
9324;SDS011;4701;51.566;6.776;2023-06-14T16:33:21;3.60;;;3.05;;
9324;SDS011;4701;51.566;6.776;2023-06-14T16:36:23;6.68;;;2.58;;
9324;SDS011;4701;51.566;6.776;2023-06-14T16:39:27;7.05;;;2.67;;
9324;SDS011;4701;51.566;6.776;2023-06-14T16:42:29;7.22;;;2.70;;
9324;SDS011;4701;51.566;6.776;2023-06-14T16:45:31;13.90;;;8.63;;
9324;SDS011;4701;51.566;6.776;2023-06-14T16:48:34;3.97;;;2.50;;
9324;SDS011;4701;51.566;6.776;2023-06-14T16:51:36;6.68;;;2.50;;
9324;SDS011;4701;51.566;6.776;2023-06-14T16:54:40;6.93;;;2.50;;
9324;SDS011;4701;51.566;6.776;2023-06-14T16:57:42;5.07;;;2.80;;
9324;SDS011;4701;51.566;6.776;2023-06-14T17:00:44;5.32;;;2.40;;
9324;SDS011;4701;51.566;6.776;2023-06-14T17:03:46;4.88;;;2.70;;
9324;SDS011;4701;51.566;6.776;2023-06-14T17:06:48;7.57;;;2.50;;
9324;SDS011;4701;51.566;6.776;2023-06-14T17:09:51;7.32;;;2.60;;
9324;SDS011;4701;51.566;6.776;2023-06-14T17:12:53;5.05;;;2.78;;
9324;SDS011;4701;51.566;6.776;2023-06-14T17:15:55;4.25;;;2.50;;
9324;SDS011;4701;51.566;6.776;2023-06-14T17:18:57;7.82;;;2.30;;
9324;SDS011;4701;51.566;6.776;2023-06-14T17:22:00;6.40;;;3.03;;
9324;SDS011;4701;51.566;6.776;2023-06-14T17:25:04;2.42;;;2.22;;
9324;SDS011;4701;51.566;6.776;2023-06-14T17:28:06;4.45;;;2.40;;
9324;SDS011;4701;51.566;6.776;2023-06-14T17:31:08;4.95;;;2.17;;
9324;SDS011;4701;51.566;6.776;2023-06-14T17:34:10;7.40;;;3.97;;
9324;SDS011;4701;51.566;6.776;2023-06-14T17:37:12;4.13;;;2.65;;
9324;SDS011;4701;51.566;6.776;2023-06-14T17:40:15;3.08;;;2.70;;
9324;SDS011;4701;51.566;6.776;2023-06-14T17:43:17;4.28;;;2.50;;
9324;SDS011;4701;51.566;6.776;2023-06-14T17:46:21;7.07;;;2.67;;
9324;SDS011;4701;51.566;6.776;2023-06-14T17:49:23;2.50;;;2.30;;
9324;SDS011;4701;51.566;6.776;2023-06-14T17:52:27;4.47;;;2.67;;
9324;SDS011;4701;51.566;6.776;2023-06-14T17:55:30;5.65;;;2.40;;
9324;SDS011;4701;51.566;6.776;2023-06-14T17:58:33;4.30;;;2.65;;
9324;SDS011;4701;51.566;6.776;2023-06-14T18:01:36;4.25;;;2.22;;
9324;SDS011;4701;51.566;6.776;2023-06-14T18:04:38;4.22;;;2.58;;
9324;SDS011;4701;51.566;6.776;2023-06-14T18:07:45;3.17;;;2.38;;
9324;SDS011;4701;51.566;6.776;2023-06-14T18:10:52;6.13;;;2.40;;
9324;SDS011;4701;51.566;6.776;2023-06-14T18:13:54;3.35;;;2.35;;
9324;SDS011;4701;51.566;6.776;2023-06-14T18:16:56;3.50;;;2.53;;
9324;SDS011;4701;51.566;6.776;2023-06-14T18:19:59;7.30;;;3.40;;
9324;SDS011;4701;51.566;6.776;2023-06-14T18:23:01;3.50;;;2.63;;
9324;SDS011;4701;51.566;6.776;2023-06-14T18:26:04;6.13;;;2.30;;
9324;SDS011;4701;51.566;6.776;2023-06-14T18:29:06;3.65;;;2.55;;
9324;SDS011;4701;51.566;6.776;2023-06-14T18:32:08;4.65;;;1.90;;
9324;SDS011;4701;51.566;6.776;2023-06-14T18:35:10;3.92;;;2.38;;
9324;SDS011;4701;51.566;6.776;2023-06-14T18:38:12;3.63;;;3.13;;
9324;SDS011;4701;51.566;6.776;2023-06-14T18:41:15;2.53;;;2.33;;
9324;SDS011;4701;51.566;6.776;2023-06-14T18:44:17;3.90;;;2.33;;
9324;SDS011;4701;51.566;6.776;2023-06-14T18:47:19;2.83;;;2.05;;
9324;SDS011;4701;51.566;6.776;2023-06-14T18:50:21;7.35;;;2.20;;
9324;SDS011;4701;51.566;6.776;2023-06-14T18:53:23;5.18;;;2.25;;
9324;SDS011;4701;51.566;6.776;2023-06-14T18:56:28;4.20;;;2.28;;
9324;SDS011;4701;51.566;6.776;2023-06-14T18:59:31;4.60;;;2.30;;